Time;durP1;ratioP1;P1;durP2;ratioP2;P2;SDS_P1;SDS_P2;PMS_P1;PMS_P2;Temp;Humidity;BMP_temperature;BMP_pressure;BME280_temperature;BME280_humidity;BME280_pressure;Samples;Min_cycle;Max_cycle;Signal;HPM_P1;HPM_P2
2023/04/02 00:00:09;;;;;;;15.82;6.25;;;7.60;99.90;;;;;;5094130;28;20020;-71
2023/04/02 00:02:57;;;;;;;17.20;7.40;;;7.50;99.90;;;;;;5091519;28;20383;-70
2023/04/02 00:05:29;;;;;;;12.60;6.43;;;7.50;99.90;;;;;;5083793;28;20086;-70
2023/04/02 00:08:01;;;;;;;17.80;6.88;;;7.50;99.90;;;;;;5087356;28;20037;-69
2023/04/02 00:10:45;;;;;;;16.05;6.15;;;7.40;99.90;;;;;;5092624;28;20213;-70
2023/04/02 00:13:11;;;;;;;13.98;6.38;;;7.40;99.90;;;;;;5084986;28;20028;-70
2023/04/02 00:15:48;;;;;;;11.68;5.25;;;7.40;99.90;;;;;;5092906;28;20034;-70
2023/04/02 00:18:20;;;;;;;13.55;4.88;;;7.40;99.90;;;;;;5092289;28;20056;-70
2023/04/02 00:20:55;;;;;;;11.95;5.10;;;7.40;99.90;;;;;;5093466;28;20028;-70
2023/04/02 00:23:21;;;;;;;12.57;6.10;;;7.40;99.90;;;;;;5085912;28;20051;-70
2023/04/02 00:25:47;;;;;;;14.98;5.75;;;7.30;99.90;;;;;;5087832;28;20052;-70
2023/04/02 00:28:16;;;;;;;12.05;4.75;;;7.30;99.90;;;;;;5093442;28;20028;-70
2023/04/02 00:30:46;;;;;;;9.48;4.78;;;7.30;99.90;;;;;;5081196;28;20044;-69
2023/04/02 00:33:17;;;;;;;11.90;5.60;;;7.30;99.90;;;;;;5089694;28;20031;-69
2023/04/02 00:35:43;;;;;;;13.93;5.78;;;7.30;99.90;;;;;;5093494;28;20051;-71
2023/04/02 00:38:31;;;;;;;14.15;4.95;;;7.30;99.90;;;;;;5093437;28;20067;-71
2023/04/02 00:41:00;;;;;;;12.70;4.68;;;7.30;99.90;;;;;;5084964;28;20114;-71
2023/04/02 00:43:29;;;;;;;12.02;5.13;;;7.30;99.90;;;;;;5093593;28;20058;-70
2023/04/02 00:46:02;;;;;;;13.23;5.70;;;7.30;99.90;;;;;;5092959;28;20467;-71
2023/04/02 00:48:30;;;;;;;12.50;5.53;;;7.30;99.90;;;;;;5088806;28;20051;-70
2023/04/02 00:51:00;;;;;;;15.07;7.13;;;7.30;99.90;;;;;;5086007;28;20089;-70
2023/04/02 00:53:30;;;;;;;12.60;6.53;;;7.30;99.90;;;;;;5092561;28;20024;-71
2023/04/02 00:55:57;;;;;;;14.00;6.70;;;7.30;99.90;;;;;;5091914;28;20046;-71
2023/04/02 00:58:30;;;;;;;16.98;6.60;;;7.30;99.90;;;;;;5091021;28;20032;-70
2023/04/02 01:00:58;;;;;;;13.70;5.95;;;7.30;99.90;;;;;;5089713;28;20078;-70
2023/04/02 01:03:52;;;;;;;15.65;6.47;;;7.30;99.90;;;;;;5091620;28;20052;-71
2023/04/02 01:06:18;;;;;;;18.48;7.18;;;7.30;99.90;;;;;;5078139;28;20040;-71
2023/04/02 01:09:09;;;;;;;11.85;5.43;;;7.20;99.90;;;;;;5092415;28;20498;-70
2023/04/02 01:11:38;;;;;;;11.65;5.55;;;7.20;99.90;;;;;;5092299;28;20024;-71
2023/04/02 01:14:33;;;;;;;14.93;5.90;;;7.20;99.90;;;;;;5090863;28;20027;-70
2023/04/02 01:17:21;;;;;;;16.83;5.68;;;7.20;99.90;;;;;;5073043;28;20485;-70
2023/04/02 01:19:47;;;;;;;16.63;6.88;;;7.10;99.90;;;;;;5086280;28;20121;-70
2023/04/02 01:22:29;;;;;;;18.45;6.75;;;7.10;99.90;;;;;;5092280;28;20039;-70
2023/04/02 01:24:57;;;;;;;18.65;5.63;;;7.10;99.90;;;;;;5092839;28;20073;-70
2023/04/02 01:27:28;;;;;;;15.02;6.50;;;7.10;99.90;;;;;;5093314;28;20032;-70
2023/04/02 01:29:57;;;;;;;16.27;6.43;;;7.10;99.90;;;;;;5086802;28;20122;-71
2023/04/02 01:32:26;;;;;;;12.20;5.63;;;7.10;99.90;;;;;;5081201;28;20031;-70
2023/04/02 01:34:52;;;;;;;12.35;5.22;;;7.10;99.90;;;;;;5084333;28;20031;-71
2023/04/02 01:37:48;;;;;;;10.35;4.95;;;7.10;99.90;;;;;;5075892;28;20028;-70
2023/04/02 01:40:45;;;;;;;11.68;5.05;;;7.10;99.90;;;;;;5088573;28;20024;-71
2023/04/02 01:43:32;;;;;;;13.60;5.22;;;7.10;99.90;;;;;;5090456;28;20081;-70
2023/04/02 01:46:03;;;;;;;9.25;4.28;;;7.00;99.90;;;;;;5077122;28;20097;-70
2023/04/02 01:48:30;;;;;;;12.25;5.63;;;7.00;99.90;;;;;;5092402;28;20016;-70
2023/04/02 01:50:58;;;;;;;10.98;4.65;;;7.00;99.90;;;;;;5090922;28;20527;-69
2023/04/02 01:53:26;;;;;;;11.57;5.10;;;7.00;99.90;;;;;;5088417;28;20050;-71
2023/04/02 01:55:58;;;;;;;10.73;5.07;;;7.00;99.90;;;;;;5089752;28;20472;-70
2023/04/02 01:58:26;;;;;;;11.88;4.55;;;7.00;99.90;;;;;;5092453;28;20519;-70
2023/04/02 02:01:02;;;;;;;10.57;4.47;;;7.00;99.90;;;;;;5091042;28;20474;-71
2023/04/02 02:03:28;;;;;;;10.35;4.85;;;6.90;99.90;;;;;;5092062;28;20384;-69
2023/04/02 02:05:54;;;;;;;12.40;5.47;;;6.90;99.90;;;;;;5091119;28;20101;-72
2023/04/02 02:08:43;;;;;;;14.80;6.13;;;6.90;99.90;;;;;;5092141;28;20054;-70
2023/04/02 02:11:15;;;;;;;15.00;6.28;;;6.90;99.90;;;;;;5088780;28;20032;-70
2023/04/02 02:13:45;;;;;;;11.65;5.70;;;6.90;99.90;;;;;;5091001;28;20356;-71
2023/04/02 02:16:16;;;;;;;8.93;4.65;;;6.90;99.90;;;;;;5091902;28;20474;-70
2023/04/02 02:18:44;;;;;;;8.77;4.57;;;6.90;99.90;;;;;;5092021;28;20079;-71
2023/04/02 02:21:11;;;;;;;13.57;5.70;;;6.90;99.90;;;;;;5089817;28;20028;-71
2023/04/02 02:23:37;;;;;;;10.10;4.72;;;6.90;99.90;;;;;;5091593;28;20383;-70
2023/04/02 02:26:05;;;;;;;12.20;5.15;;;6.90;99.90;;;;;;5091659;28;20040;-70
2023/04/02 02:28:35;;;;;;;10.38;5.25;;;6.90;99.90;;;;;;5086484;28;20066;-69
2023/04/02 02:31:26;;;;;;;8.20;4.22;;;6.80;99.90;;;;;;5073336;28;20032;-70
2023/04/02 02:33:59;;;;;;;12.70;5.57;;;6.80;99.90;;;;;;5092697;28;20109;-70
2023/04/02 02:36:34;;;;;;;12.32;5.70;;;6.80;99.90;;;;;;5092346;28;20036;-70
2023/04/02 02:39:15;;;;;;;14.27;5.82;;;6.80;99.90;;;;;;5092244;28;20064;-71
2023/04/02 02:41:44;;;;;;;12.20;4.83;;;6.80;99.90;;;;;;5093420;28;20020;-70
2023/04/02 02:44:09;;;;;;;11.50;5.13;;;6.80;99.90;;;;;;5096072;28;20024;-70
2023/04/02 02:46:50;;;;;;;9.93;4.75;;;6.80;99.90;;;;;;5092997;28;20071;-70
2023/04/02 02:49:21;;;;;;;10.63;4.28;;;6.80;99.90;;;;;;5095510;28;20043;-70
2023/04/02 02:51:52;;;;;;;12.68;5.28;;;6.80;99.90;;;;;;5095265;28;20123;-71
2023/04/02 02:54:19;;;;;;;15.05;5.68;;;6.70;99.90;;;;;;5095985;28;20111;-71
2023/04/02 02:56:53;;;;;;;11.25;5.25;;;6.80;99.90;;;;;;5092610;28;20543;-70
2023/04/02 02:59:20;;;;;;;10.88;4.82;;;6.70;99.90;;;;;;5094060;28;20024;-70
2023/04/02 03:01:46;;;;;;;12.02;4.68;;;6.70;99.90;;;;;;5092522;28;20054;-70
2023/04/02 03:04:13;;;;;;;16.45;6.28;;;6.70;99.90;;;;;;5094755;28;20789;-70
2023/04/02 03:06:40;;;;;;;13.63;5.22;;;6.70;99.90;;;;;;5087134;28;20083;-70
2023/04/02 03:09:18;;;;;;;12.63;5.25;;;6.70;99.90;;;;;;5089898;28;20096;-70
2023/04/02 03:11:51;;;;;;;13.15;5.60;;;6.70;99.90;;;;;;5088567;28;20024;-70
2023/04/02 03:14:42;;;;;;;12.43;5.18;;;6.60;99.90;;;;;;5093882;28;20035;-70
2023/04/02 03:17:25;;;;;;;8.75;4.57;;;6.60;99.90;;;;;;5075388;28;20031;-70
2023/04/02 03:20:00;;;;;;;8.90;4.47;;;6.60;99.90;;;;;;5075308;28;20086;-71
2023/04/02 03:22:36;;;;;;;10.77;4.90;;;6.50;99.90;;;;;;5089865;28;20024;-70
2023/04/02 03:25:10;;;;;;;14.90;6.03;;;6.50;99.90;;;;;;5095102;28;20110;-70
2023/04/02 03:27:42;;;;;;;12.80;6.18;;;6.40;99.90;;;;;;5095573;28;20034;-70
2023/04/02 03:30:26;;;;;;;10.82;4.70;;;6.50;99.90;;;;;;5092123;28;20041;-70
2023/04/02 03:33:01;;;;;;;7.15;4.53;;;6.50;99.90;;;;;;5088566;28;20032;-70
2023/04/02 03:35:35;;;;;;;9.35;4.72;;;6.50;99.90;;;;;;5095211;28;20038;-70
2023/04/02 03:38:24;;;;;;;12.15;4.72;;;6.50;99.90;;;;;;5095479;28;20107;-70
2023/04/02 03:40:53;;;;;;;14.52;5.10;;;6.40;99.90;;;;;;5093975;28;20039;-70
2023/04/02 03:43:24;;;;;;;12.75;5.88;;;6.40;99.90;;;;;;5095494;28;20111;-70
2023/04/02 03:45:56;;;;;;;9.68;4.90;;;6.40;99.90;;;;;;5094992;28;20055;-70
2023/04/02 03:48:43;;;;;;;7.82;4.38;;;6.50;99.90;;;;;;5095128;28;20032;-70
2023/04/02 03:52:00;;;;;;;11.38;4.88;;;6.40;99.90;;;;;;5088922;28;20036;-70
2023/04/02 03:54:27;;;;;;;12.45;5.80;;;6.40;99.90;;;;;;4993503;28;20030;-70
2023/04/02 03:56:53;;;;;;;11.82;4.88;;;6.40;99.90;;;;;;5068866;28;20040;-70
2023/04/02 03:59:40;;;;;;;10.57;4.30;;;6.40;99.90;;;;;;5074789;28;20027;-70
2023/04/02 04:02:18;;;;;;;11.15;5.72;;;6.40;99.90;;;;;;5086494;28;20472;-70
2023/04/02 04:04:45;;;;;;;11.70;4.72;;;6.40;99.90;;;;;;5095136;28;20032;-70
2023/04/02 04:07:29;;;;;;;13.88;5.13;;;6.30;99.90;;;;;;5094888;28;20028;-70
2023/04/02 04:09:57;;;;;;;12.48;5.10;;;6.30;99.90;;;;;;5089486;28;20178;-70
2023/04/02 04:12:35;;;;;;;12.35;5.07;;;6.20;99.90;;;;;;5094078;28;20028;-70
2023/04/02 04:15:19;;;;;;;9.18;4.35;;;6.20;99.90;;;;;;5094924;28;20028;-70
2023/04/02 04:17:52;;;;;;;10.48;5.25;;;6.20;99.90;;;;;;5094649;28;20032;-70
2023/04/02 04:20:45;;;;;;;13.40;4.88;;;6.10;99.90;;;;;;5094179;28;20058;-70
2023/04/02 04:23:32;;;;;;;10.15;4.40;;;6.10;99.90;;;;;;5094788;28;20036;-70
2023/04/02 04:26:08;;;;;;;11.68;5.45;;;6.00;99.90;;;;;;5092581;28;20082;-71
2023/04/02 04:28:55;;;;;;;14.60;4.80;;;5.80;99.90;;;;;;5094517;28;20028;-70
2023/04/02 04:31:32;;;;;;;12.18;4.68;;;5.80;99.90;;;;;;5093298;28;20464;-71
2023/04/02 04:34:04;;;;;;;12.70;5.32;;;5.80;99.90;;;;;;5094445;28;20468;-70
2023/04/02 04:36:40;;;;;;;9.30;4.20;;;5.70;99.90;;;;;;5094458;28;20046;-70
2023/04/02 04:39:16;;;;;;;13.27;5.35;;;5.70;99.90;;;;;;5094594;28;20043;-70
2023/04/02 04:41:43;;;;;;;7.63;3.92;;;5.70;99.90;;;;;;5091238;28;20522;-71
2023/04/02 04:44:20;;;;;;;9.00;3.75;;;5.60;99.90;;;;;;5093728;28;20471;-70
2023/04/02 04:46:54;;;;;;;12.20;4.15;;;5.60;99.90;;;;;;5094250;28;20024;-70
2023/04/02 04:49:27;;;;;;;12.98;4.95;;;5.60;99.90;;;;;;5093930;28;20040;-70
2023/04/02 04:52:13;;;;;;;10.30;3.90;;;5.50;99.90;;;;;;5092893;28;20065;-70
2023/04/02 04:54:39;;;;;;;10.20;4.50;;;5.50;99.90;;;;;;5094262;28;20035;-70
2023/04/02 04:57:12;;;;;;;11.77;4.78;;;5.40;99.90;;;;;;5093900;28;20387;-70
2023/04/02 04:59:47;;;;;;;8.43;4.00;;;5.40;99.90;;;;;;5084158;28;20032;-70
2023/04/02 05:02:21;;;;;;;7.70;4.00;;;5.40;99.90;;;;;;5092444;28;20028;-70
2023/04/02 05:04:51;;;;;;;13.30;4.65;;;5.40;99.90;;;;;;5093032;28;20480;-70
2023/04/02 05:07:21;;;;;;;7.88;3.88;;;5.40;99.90;;;;;;5093754;28;20043;-70
2023/04/02 05:09:52;;;;;;;7.57;3.50;;;5.40;99.90;;;;;;5093469;28;20059;-71
2023/04/02 05:12:43;;;;;;;9.45;4.07;;;5.30;99.90;;;;;;5093104;28;20028;-71
2023/04/02 05:15:40;;;;;;;9.80;3.85;;;5.30;99.90;;;;;;5093686;28;20027;-70
2023/04/02 05:18:06;;;;;;;9.25;3.40;;;5.30;99.90;;;;;;5086331;28;20035;-72
2023/04/02 05:20:42;;;;;;;7.85;3.88;;;5.30;99.90;;;;;;5091184;28;20036;-71
2023/04/02 05:23:33;;;;;;;11.65;4.00;;;5.20;99.90;;;;;;5093482;28;20038;-70
2023/04/02 05:26:32;;;;;;;11.32;3.97;;;5.20;99.90;;;;;;5093678;28;20102;-70
2023/04/02 05:29:23;;;;;;;9.73;3.88;;;5.20;99.90;;;;;;5092720;28;20058;-70
2023/04/02 05:32:03;;;;;;;8.73;3.42;;;5.20;99.90;;;;;;5092178;28;20032;-71
2023/04/02 05:34:38;;;;;;;10.20;3.45;;;5.20;99.90;;;;;;5093287;28;20024;-71
2023/04/02 05:37:05;;;;;;;8.75;3.40;;;5.20;99.90;;;;;;5087699;28;20035;-71
2023/04/02 05:39:31;;;;;;;10.10;3.30;;;5.20;99.90;;;;;;5093112;28;20032;-71
2023/04/02 05:42:07;;;;;;;9.48;3.80;;;5.20;99.90;;;;;;5088581;28;20115;-71
2023/04/02 05:44:40;;;;;;;7.50;3.47;;;5.20;99.90;;;;;;5093035;28;20063;-71
2023/04/02 05:47:11;;;;;;;7.60;3.00;;;5.20;99.90;;;;;;5091814;28;20028;-71
2023/04/02 05:50:08;;;;;;;8.77;3.55;;;5.20;99.90;;;;;;5092292;28;20043;-70
2023/04/02 05:53:32;;;;;;;6.10;3.45;;;5.10;99.90;;;;;;5086086;28;20032;-71
2023/04/02 05:56:22;;;;;;;9.75;3.40;;;5.10;99.90;;;;;;5017035;28;20030;-70
2023/04/02 05:58:53;;;;;;;7.75;3.10;;;5.10;99.90;;;;;;5010750;28;20030;-70
2023/04/02 06:01:39;;;;;;;8.55;3.40;;;5.10;99.90;;;;;;5057549;28;20525;-70
2023/04/02 06:04:24;;;;;;;6.95;2.85;;;5.10;99.90;;;;;;5092531;28;20032;-71
2023/04/02 06:07:02;;;;;;;13.00;3.80;;;5.10;99.90;;;;;;5092503;28;20036;-70
2023/04/02 06:09:48;;;;;;;10.68;3.50;;;5.00;99.90;;;;;;5092656;28;20032;-70
2023/04/02 06:12:38;;;;;;;9.77;3.03;;;5.00;99.90;;;;;;5088878;28;20031;-71
2023/04/02 06:15:05;;;;;;;6.07;2.05;;;5.00;99.90;;;;;;5092479;28;20028;-70
2023/04/02 06:17:42;;;;;;;7.55;3.15;;;5.00;99.90;;;;;;5092400;28;20020;-71
2023/04/02 06:20:14;;;;;;;9.02;3.10;;;4.90;99.90;;;;;;5091322;28;20456;-70
2023/04/02 06:22:43;;;;;;;9.65;2.92;;;4.90;99.90;;;;;;5072388;28;20542;-70
2023/04/02 06:25:19;;;;;;;5.82;1.83;;;4.80;99.90;;;;;;5071960;28;20563;-71
2023/04/02 06:27:47;;;;;;;7.65;2.58;;;4.90;99.90;;;;;;5072851;28;20036;-70
2023/04/02 06:30:18;;;;;;;6.53;2.30;;;4.90;99.90;;;;;;5088613;28;20044;-71
2023/04/02 06:32:43;;;;;;;4.68;2.30;;;4.90;99.90;;;;;;5089721;28;20035;-70
2023/04/02 06:35:13;;;;;;;7.53;2.63;;;4.90;99.90;;;;;;5091590;28;20020;-71
2023/04/02 06:37:43;;;;;;;5.47;2.30;;;4.90;99.90;;;;;;5091195;28;20062;-71
2023/04/02 06:40:30;;;;;;;5.68;2.42;;;4.90;99.90;;;;;;5091131;28;20116;-70
2023/04/02 06:42:58;;;;;;;6.70;2.25;;;4.90;99.90;;;;;;5092172;28;20095;-71
2023/04/02 06:45:33;;;;;;;5.70;1.80;;;4.80;99.90;;;;;;5091346;28;20039;-71
2023/04/02 06:48:01;;;;;;;8.00;2.30;;;4.80;99.90;;;;;;5088287;28;20028;-71
2023/04/02 06:50:51;;;;;;;5.03;1.80;;;4.80;99.90;;;;;;5091283;28;20048;-70
2023/04/02 06:53:27;;;;;;;6.97;2.40;;;4.80;99.90;;;;;;5092274;28;20032;-71
2023/04/02 06:56:30;;;;;;;7.20;2.10;;;4.80;99.90;;;;;;5092255;28;20036;-71
2023/04/02 06:58:57;;;;;;;6.45;1.90;;;4.80;99.90;;;;;;5092247;28;20024;-71
2023/04/02 07:01:35;;;;;;;3.08;1.77;;;4.80;99.90;;;;;;5085942;28;20027;-71
2023/04/02 07:04:01;;;;;;;6.90;2.25;;;4.80;99.90;;;;;;5091394;28;20028;-71
2023/04/02 07:06:27;;;;;;;4.68;1.60;;;4.80;99.90;;;;;;5092145;28;20020;-71
2023/04/02 07:08:52;;;;;;;4.70;1.40;;;4.90;99.90;;;;;;5089991;28;20383;-71
2023/04/02 07:11:21;;;;;;;7.00;2.05;;;4.90;99.90;;;;;;5085274;28;20016;-71
2023/04/02 07:13:49;;;;;;;9.13;2.10;;;5.00;99.90;;;;;;5088816;28;20028;-71
2023/04/02 07:16:18;;;;;;;9.30;2.33;;;5.10;99.90;;;;;;5091805;28;20031;-71
2023/04/02 07:18:44;;;;;;;11.32;2.65;;;5.20;99.90;;;;;;5088142;28;20039;-70
2023/04/02 07:21:10;;;;;;;8.10;2.05;;;5.30;99.90;;;;;;5082311;28;20489;-71
2023/04/02 07:23:36;;;;;;;8.73;2.10;;;5.30;99.90;;;;;;5083250;28;20116;-71
2023/04/02 07:26:02;;;;;;;4.95;1.88;;;5.30;99.90;;;;;;5090265;28;20056;-71
2023/04/02 07:28:28;;;;;;;7.40;2.42;;;5.30;99.90;;;;;;5094805;28;20479;-71
2023/04/02 07:30:55;;;;;;;4.63;1.75;;;5.30;99.90;;;;;;5091240;28;20040;-71
2023/04/02 07:33:23;;;;;;;9.68;2.22;;;5.30;99.90;;;;;;5095251;28;20063;-71
2023/04/02 07:35:51;;;;;;;6.70;2.17;;;5.40;99.90;;;;;;5094617;28;20028;-71
2023/04/02 07:38:16;;;;;;;5.63;2.00;;;5.50;99.90;;;;;;5092449;28;20032;-70
2023/04/02 07:40:42;;;;;;;5.85;2.10;;;5.60;99.90;;;;;;5094330;28;20101;-70
2023/04/02 07:43:08;;;;;;;4.70;1.50;;;5.60;99.90;;;;;;5094217;28;20020;-71
2023/04/02 07:45:34;;;;;;;5.97;1.88;;;5.70;99.90;;;;;;5090632;28;20103;-71
2023/04/02 07:48:13;;;;;;;4.05;1.80;;;5.70;99.90;;;;;;5093749;28;20107;-70
2023/04/02 07:50:39;;;;;;;7.95;1.98;;;5.70;99.90;;;;;;5093733;28;20032;-71
2023/04/02 07:53:05;;;;;;;4.82;1.95;;;5.80;99.90;;;;;;5094826;28;20036;-71
2023/04/02 07:55:31;;;;;;;7.10;1.75;;;5.90;99.90;;;;;;5082159;28;20028;-71
2023/04/02 07:57:58;;;;;;;8.30;2.70;;;5.90;99.90;;;;;;5091468;28;20077;-71
2023/04/02 08:00:25;;;;;;;10.52;1.77;;;6.00;99.90;;;;;;5093733;28;20111;-71
2023/04/02 08:02:51;;;;;;;6.00;1.70;;;6.10;99.90;;;;;;5091725;28;20476;-71
2023/04/02 08:05:17;;;;;;;5.47;1.83;;;6.10;99.90;;;;;;5094369;28;20031;-71
2023/04/02 08:07:50;;;;;;;4.57;1.25;;;6.00;99.90;;;;;;5094910;28;20365;-70
2023/04/02 08:10:17;;;;;;;6.00;1.65;;;5.90;99.90;;;;;;5092638;28;20028;-71
2023/04/02 08:12:44;;;;;;;4.18;1.70;;;6.20;99.90;;;;;;5093175;28;20040;-71
2023/04/02 08:15:13;;;;;;;7.68;2.10;;;7.10;99.90;;;;;;5091344;28;20136;-71
2023/04/02 08:17:39;;;;;;;5.47;2.00;;;8.40;99.90;;;;;;5082866;28;20568;-71
2023/04/02 08:20:05;;;;;;;6.97;1.50;;;9.50;99.90;;;;;;5092207;28;20114;-70
2023/04/02 08:22:31;;;;;;;5.57;1.52;;;10.60;99.90;;;;;;5093314;28;20071;-71
2023/04/02 08:24:57;;;;;;;6.38;2.17;;;11.10;99.90;;;;;;5094240;28;20506;-71
2023/04/02 08:27:23;;;;;;;6.03;1.50;;;10.90;99.90;;;;;;5090553;28;20027;-71
2023/04/02 08:29:49;;;;;;;4.50;1.45;;;10.60;99.90;;;;;;5092645;28;20067;-71
2023/04/02 08:32:15;;;;;;;4.43;1.33;;;10.80;99.90;;;;;;5088933;28;20070;-71
2023/04/02 08:34:42;;;;;;;7.90;1.52;;;11.20;99.80;;;;;;5090199;28;20036;-72
2023/04/02 08:37:10;;;;;;;7.82;1.63;;;11.70;99.20;;;;;;5091870;28;20066;-72
2023/04/02 08:39:36;;;;;;;6.90;1.70;;;12.30;98.20;;;;;;5092597;28;20020;-71
2023/04/02 08:42:36;;;;;;;4.80;1.67;;;12.00;98.30;;;;;;5090215;28;20027;-71
2023/04/02 08:45:11;;;;;;;4.60;1.67;;;11.50;98.70;;;;;;5090165;28;20025;-71
2023/04/02 08:47:39;;;;;;;10.20;2.95;;;11.00;99.20;;;;;;5093356;28;20375;-72
2023/04/02 08:50:15;;;;;;;7.78;2.40;;;10.80;99.80;;;;;;5093115;28;20075;-72
2023/04/02 08:52:40;;;;;;;6.78;1.98;;;11.20;99.80;;;;;;5088471;28;20433;-71
2023/04/02 08:55:21;;;;;;;9.20;2.05;;;11.60;98.50;;;;;;5092765;28;20070;-71
2023/04/02 08:57:56;;;;;;;7.63;1.45;;;11.50;98.50;;;;;;5093350;28;20089;-71
2023/04/02 09:00:37;;;;;;;5.22;1.67;;;11.50;98.60;;;;;;5095744;28;20028;-71
2023/04/02 09:03:09;;;;;;;6.60;1.65;;;11.70;99.10;;;;;;5091095;28;20060;-72
2023/04/02 09:05:40;;;;;;;7.03;1.40;;;12.40;98.20;;;;;;5094854;28;20479;-73
2023/04/02 09:08:16;;;;;;;5.15;1.52;;;13.10;96.90;;;;;;5091583;28;20028;-71
2023/04/02 09:10:54;;;;;;;3.55;1.40;;;13.70;96.50;;;;;;5091821;28;20078;-72
2023/04/02 09:13:29;;;;;;;4.05;1.55;;;14.40;95.30;;;;;;5086231;28;20032;-72
2023/04/02 09:16:03;;;;;;;6.75;1.55;;;14.80;94.80;;;;;;5087322;28;20484;-72
2023/04/02 09:18:31;;;;;;;6.43;1.70;;;15.00;94.60;;;;;;5085714;28;20047;-73
2023/04/02 09:20:57;;;;;;;5.20;1.30;;;15.30;93.90;;;;;;5091167;28;20035;-71
2023/04/02 09:23:26;;;;;;;5.13;1.77;;;15.40;93.40;;;;;;5092428;28;20108;-72
2023/04/02 09:25:53;;;;;;;4.32;1.40;;;15.40;93.60;;;;;;5091093;28;20050;-72
2023/04/02 09:28:22;;;;;;;5.40;1.60;;;15.40;93.30;;;;;;5091853;28;20020;-73
2023/04/02 09:31:17;;;;;;;5.70;1.50;;;15.50;92.90;;;;;;5086598;28;20051;-72
2023/04/02 09:33:55;;;;;;;11.10;1.75;;;15.50;93.00;;;;;;5087088;28;20032;-73
2023/04/02 09:36:36;;;;;;;3.17;0.93;;;15.50;92.80;;;;;;5091096;28;20058;-72
2023/04/02 09:39:18;;;;;;;3.78;1.30;;;15.80;92.50;;;;;;5083588;28;20033;-72
2023/04/02 09:41:45;;;;;;;;;;;15.40;91.80;;;;;;5083251;28;20109;-72
2023/04/02 09:44:24;;;;;;;3.72;0.95;;;15.20;92.10;;;;;;5079222;28;20002;-72
2023/04/02 09:46:54;;;;;;;2.92;1.15;;;14.80;92.60;;;;;;5084625;28;20032;-72
2023/04/02 09:49:25;;;;;;;5.40;1.50;;;14.90;92.90;;;;;;5090138;28;20044;-72
2023/04/02 09:52:10;;;;;;;6.57;1.95;;;15.30;93.00;;;;;;5088167;28;20105;-72
2023/04/02 09:54:42;;;;;;;7.88;1.65;;;15.80;92.40;;;;;;5091969;28;20028;-71
2023/04/02 09:57:23;;;;;;;4.93;1.45;;;16.20;91.90;;;;;;5092356;28;20047;-72
2023/04/02 10:00:15;;;;;;;3.33;1.20;;;16.50;91.70;;;;;;5091996;28;20063;-72
2023/04/02 10:02:42;;;;;;;5.55;1.67;;;16.70;92.00;;;;;;5088392;28;20299;-72
2023/04/02 10:05:22;;;;;;;2.80;1.30;;;16.90;91.50;;;;;;5091921;28;20492;-72
2023/04/02 10:07:51;;;;;;;3.42;1.45;;;16.90;90.90;;;;;;5083942;28;20417;-72
2023/04/02 10:10:23;;;;;;;3.08;1.13;;;16.70;90.80;;;;;;5090924;28;20536;-72
2023/04/02 10:12:58;;;;;;;4.22;1.10;;;16.40;91.50;;;;;;5091457;28;20039;-72
2023/04/02 10:15:48;;;;;;;6.53;1.27;;;16.50;90.80;;;;;;5091652;28;20525;-72
2023/04/02 10:18:29;;;;;;;5.18;1.25;;;16.50;91.20;;;;;;5082557;28;20043;-72
2023/04/02 10:20:58;;;;;;;5.50;1.60;;;16.70;90.80;;;;;;5084763;28;20097;-72
2023/04/02 10:23:28;;;;;;;7.55;1.63;;;16.40;90.80;;;;;;5090413;28;20117;-71
2023/04/02 10:26:19;;;;;;;4.53;1.23;;;16.40;90.70;;;;;;5088038;28;20048;-72
2023/04/02 10:29:12;;;;;;;3.20;1.42;;;16.40;90.50;;;;;;5091773;28;20598;-72
2023/04/02 10:32:10;;;;;;;4.53;1.30;;;16.20;90.30;;;;;;5087954;28;20511;-71
2023/04/02 10:34:49;;;;;;;5.88;1.70;;;16.10;90.80;;;;;;5079499;28;20064;-72
2023/04/02 10:37:46;;;;;;;6.28;1.77;;;16.20;89.70;;;;;;5091060;28;20035;-72
2023/04/02 10:40:41;;;;;;;6.72;1.77;;;16.20;89.10;;;;;;5091407;28;20530;-72
2023/04/02 10:43:25;;;;;;;4.47;1.40;;;16.00;90.00;;;;;;5088786;28;20028;-72
2023/04/02 10:45:58;;;;;;;5.65;1.38;;;15.90;90.00;;;;;;5091113;28;20466;-72
2023/04/02 10:48:46;;;;;;;5.95;1.80;;;16.10;90.20;;;;;;5091571;28;20020;-72
2023/04/02 10:51:27;;;;;;;3.35;1.45;;;16.40;89.30;;;;;;5081792;28;20036;-72
2023/04/02 10:54:16;;;;;;;4.07;1.20;;;16.50;89.40;;;;;;5089552;28;20107;-72
2023/04/02 10:56:43;;;;;;;4.18;1.50;;;16.70;89.90;;;;;;5089039;28;20020;-72
2023/04/02 10:59:16;;;;;;;4.57;1.50;;;16.70;89.90;;;;;;5085147;28;20035;-72
2023/04/02 11:01:44;;;;;;;4.97;1.52;;;16.90;89.20;;;;;;5090132;28;20024;-72
2023/04/02 11:04:36;;;;;;;5.68;1.73;;;17.10;88.60;;;;;;5089326;28;20031;-72
2023/04/02 11:07:06;;;;;;;4.93;1.40;;;17.00;88.20;;;;;;5086311;28;20111;-72
2023/04/02 11:09:39;;;;;;;3.67;1.27;;;16.90;88.00;;;;;;5089148;28;20044;-72
2023/04/02 11:12:07;;;;;;;3.60;1.80;;;16.90;88.80;;;;;;5088122;28;20032;-73
2023/04/02 11:14:33;;;;;;;6.78;1.42;;;16.90;89.40;;;;;;5090522;28;20381;-72
2023/04/02 11:17:02;;;;;;;4.93;1.98;;;17.30;89.00;;;;;;5096388;28;20031;-72
2023/04/02 11:19:33;;;;;;;4.82;1.48;;;17.50;87.10;;;;;;5089399;28;20031;-72
2023/04/02 11:22:12;;;;;;;8.07;2.63;;;17.50;86.90;;;;;;5094153;28;20115;-72
2023/04/02 11:24:45;;;;;;;7.55;2.55;;;17.40;88.10;;;;;;5093966;28;20115;-72
2023/04/02 11:27:10;;;;;;;4.43;1.70;;;17.40;88.50;;;;;;5094232;28;20027;-73
2023/04/02 11:29:58;;;;;;;6.72;2.17;;;17.60;88.30;;;;;;5090800;28;20341;-72
2023/04/02 11:32:28;;;;;;;5.78;1.42;;;17.70;87.20;;;;;;5076831;28;20534;-72
2023/04/02 11:35:00;;;;;;;5.72;1.58;;;17.90;87.50;;;;;;5093632;28;20115;-73
2023/04/02 11:37:43;;;;;;;;;;;18.10;86.10;;;;;;5094266;28;20034;-73
2023/04/02 11:40:14;;;;;;;3.30;1.30;;;18.10;84.70;;;;;;5082698;28;19918;-73
2023/04/02 11:42:42;;;;;;;5.30;1.85;;;17.70;84.20;;;;;;5093716;28;20478;-72
2023/04/02 11:45:22;;;;;;;5.80;1.90;;;17.70;85.90;;;;;;5093187;28;20028;-72
2023/04/02 11:48:00;;;;;;;2.83;1.30;;;17.70;85.10;;;;;;5094340;28;20035;-73
2023/04/02 11:50:36;;;;;;;3.53;1.15;;;17.60;85.50;;;;;;5085610;28;20034;-73
2023/04/02 11:53:11;;;;;;;4.05;1.48;;;17.60;86.70;;;;;;5085080;28;20023;-72
2023/04/02 11:55:38;;;;;;;5.72;1.73;;;17.40;86.60;;;;;;5091979;28;20023;-73
2023/04/02 11:58:27;;;;;;;6.03;1.77;;;17.50;86.80;;;;;;5093715;28;20036;-74
2023/04/02 12:01:08;;;;;;;9.02;1.65;;;17.50;87.10;;;;;;5092371;28;20035;-73
2023/04/02 12:03:39;;;;;;;4.05;1.30;;;17.60;87.20;;;;;;5089502;28;20380;-72
2023/04/02 12:06:12;;;;;;;6.15;1.50;;;17.90;85.50;;;;;;5091365;28;20517;-74
2023/04/02 12:09:03;;;;;;;5.03;1.30;;;17.90;84.90;;;;;;5091371;28;20028;-72
2023/04/02 12:11:36;;;;;;;4.30;1.65;;;17.90;84.90;;;;;;5091101;28;20040;-74
2023/04/02 12:14:41;;;;;;;7.30;2.10;;;18.00;86.20;;;;;;5093729;28;20032;-73
2023/04/02 12:17:27;;;;;;;5.22;1.83;;;18.00;85.20;;;;;;5081995;28;20032;-74
2023/04/02 12:19:58;;;;;;;5.43;1.63;;;18.10;85.20;;;;;;5090920;28;20036;-73
2023/04/02 12:22:30;;;;;;;4.43;1.75;;;18.20;85.40;;;;;;5092749;28;20063;-74
2023/04/02 12:25:06;;;;;;;2.70;1.52;;;18.20;85.40;;;;;;5089073;28;20044;-74
2023/04/02 12:27:37;;;;;;;3.22;1.42;;;18.30;84.00;;;;;;5092613;28;20032;-74
2023/04/02 12:30:20;;;;;;;2.85;1.15;;;18.20;84.20;;;;;;5085279;28;20056;-73
2023/04/02 12:32:46;;;;;;;2.13;1.20;;;18.40;82.20;;;;;;5085428;28;20032;-73
2023/04/02 12:35:35;;;;;;;4.50;1.55;;;18.40;82.10;;;;;;5091543;28;20024;-74
2023/04/02 12:38:01;;;;;;;5.45;1.25;;;18.60;81.70;;;;;;5102191;28;20118;-74
2023/04/02 12:40:27;;;;;;;2.42;0.88;;;18.40;80.90;;;;;;5089557;28;20110;-74
2023/04/02 12:42:53;;;;;;;3.83;1.60;;;18.30;81.30;;;;;;5085481;28;20047;-74
2023/04/02 12:45:35;;;;;;;9.10;2.00;;;17.90;81.60;;;;;;5093463;28;20024;-74
2023/04/02 12:48:04;;;;;;;;;;;17.50;83.40;;;;;;5094402;28;20103;-74
2023/04/02 12:50:30;;;;;;;2.13;1.00;;;17.30;84.40;;;;;;5092462;28;20437;-74
2023/04/02 12:52:59;;;;;;;5.15;1.33;;;17.00;83.00;;;;;;5089227;28;20039;-74
2023/04/02 12:55:26;;;;;;;2.05;1.20;;;16.60;83.30;;;;;;5092553;28;20028;-74
2023/04/02 12:57:58;;;;;;;2.25;1.00;;;16.20;85.10;;;;;;5086017;28;20082;-74
2023/04/02 13:00:24;;;;;;;5.28;1.30;;;15.70;86.60;;;;;;5091079;28;20028;-74
2023/04/02 13:03:05;;;;;;;3.92;0.80;;;15.30;87.10;;;;;;5086233;28;20111;-75
2023/04/02 13:05:45;;;;;;;4.75;1.40;;;14.90;87.60;;;;;;5092564;28;20031;-75
2023/04/02 13:08:29;;;;;;;4.95;1.10;;;14.50;88.00;;;;;;5092028;28;20407;-74
2023/04/02 13:10:58;;;;;;;5.03;1.88;;;14.00;90.20;;;;;;5085638;28;20044;-75
2023/04/02 13:13:28;;;;;;;4.53;1.17;;;13.60;90.30;;;;;;5089780;28;20036;-74
2023/04/02 13:16:13;;;;;;;2.30;1.20;;;13.40;90.20;;;;;;5087710;28;20544;-76
2023/04/02 13:18:40;;;;;;;2.85;1.00;;;13.10;91.20;;;;;;5091291;28;20392;-76
2023/04/02 13:21:23;;;;;;;3.75;1.00;;;12.90;91.10;;;;;;5090835;28;20036;-75
2023/04/02 13:23:49;;;;;;;4.63;1.40;;;12.70;91.10;;;;;;5090512;28;20036;-75
2023/04/02 13:26:24;;;;;;;4.10;1.63;;;12.70;92.10;;;;;;5092470;28;20044;-76
2023/04/02 13:28:59;;;;;;;4.75;1.50;;;12.60;92.80;;;;;;5091574;28;20496;-75